createdAt,value
2022-09-11T00:01:00.293Z,3.03
2022-09-11T00:03:28.283Z,5.70
2022-09-11T00:05:54.818Z,3.65
2022-09-11T00:08:21.966Z,3.17
2022-09-11T00:10:48.759Z,2.53
2022-09-11T00:13:21.630Z,2.92
2022-09-11T00:15:50.864Z,4.60
2022-09-11T00:18:24.099Z,4.30
2022-09-11T00:20:53.746Z,4.50
2022-09-11T00:23:22.222Z,3.97
2022-09-11T00:25:49.306Z,4.00
2022-09-11T00:28:19.855Z,4.60
2022-09-11T00:30:48.547Z,2.67
2022-09-11T00:33:16.119Z,4.28
2022-09-11T00:35:42.685Z,4.25
2022-09-11T00:38:10.585Z,4.90
2022-09-11T00:40:46.570Z,3.97
2022-09-11T00:43:17.792Z,5.40
2022-09-11T00:45:48.194Z,3.95
2022-09-11T00:48:20.427Z,4.35
2022-09-11T00:50:48.337Z,5.10
2022-09-11T00:53:17.860Z,5.78
2022-09-11T00:55:50.738Z,4.25
2022-09-11T00:58:23.902Z,4.38
2022-09-11T01:00:53.988Z,4.43
2022-09-11T01:03:20.815Z,5.07
2022-09-11T01:05:48.329Z,5.40
2022-09-11T01:08:15.250Z,6.35
2022-09-11T01:10:50.716Z,4.50
2022-09-11T01:13:38.982Z,5.32
2022-09-11T01:16:23.609Z,5.45
2022-09-11T01:19:05.492Z,4.82
2022-09-11T01:21:40.881Z,4.80
2022-09-11T01:24:35.183Z,5.05
2022-09-11T01:27:28.124Z,5.40
2022-09-11T01:30:00.736Z,5.80
2022-09-11T01:32:47.869Z,4.15
2022-09-11T01:35:41.738Z,6.80
2022-09-11T01:38:46.326Z,5.90
2022-09-11T01:41:21.813Z,6.22
2022-09-11T01:44:04.246Z,7.55
2022-09-11T01:46:36.543Z,9.60
2022-09-11T01:49:33.137Z,6.35
2022-09-11T01:52:03.423Z,5.78
2022-09-11T01:54:34.568Z,6.63
2022-09-11T01:57:09.725Z,6.90
2022-09-11T01:59:52.726Z,6.75
2022-09-11T02:02:25.073Z,6.57
2022-09-11T02:05:03.286Z,7.78
2022-09-11T02:07:42.605Z,6.93
2022-09-11T02:10:18.175Z,8.68
2022-09-11T02:12:51.963Z,5.82
2022-09-11T02:15:19.355Z,7.45
2022-09-11T02:18:01.949Z,7.85
2022-09-11T02:20:29.907Z,6.57
2022-09-11T02:22:57.301Z,7.28
2022-09-11T02:25:24.013Z,8.20
2022-09-11T02:27:50.627Z,5.93
2022-09-11T02:30:17.252Z,6.80
2022-09-11T02:32:44.799Z,6.13
2022-09-11T02:35:12.149Z,7.43
2022-09-11T02:38:31.151Z,5.30
2022-09-11T02:41:12.293Z,7.78
2022-09-11T02:43:58.646Z,5.40
2022-09-11T02:46:44.114Z,6.68
2022-09-11T02:49:28.524Z,5.85
2022-09-11T02:52:18.429Z,6.13
2022-09-11T02:55:04.262Z,7.57
2022-09-11T02:57:33.132Z,5.85
2022-09-11T03:00:02.762Z,7.32
2022-09-11T03:02:31.008Z,6.40
2022-09-11T03:04:58.087Z,7.22
2022-09-11T03:07:25.683Z,6.68
2022-09-11T03:09:53.147Z,5.00
2022-09-11T03:12:20.123Z,5.85
2022-09-11T03:14:46.705Z,7.47
2022-09-11T03:17:13.504Z,6.07
2022-09-11T03:19:40.284Z,5.82
2022-09-11T03:22:06.954Z,6.93
2022-09-11T03:24:33.518Z,5.55
2022-09-11T03:27:00.125Z,6.57
2022-09-11T03:29:26.670Z,5.57
2022-09-11T03:31:53.454Z,5.60
2022-09-11T03:34:20.157Z,7.05
2022-09-11T03:36:48.179Z,4.93
2022-09-11T03:39:14.871Z,5.70
2022-09-11T03:41:41.532Z,5.63
2022-09-11T03:44:08.229Z,5.95
2022-09-11T03:46:35.100Z,5.03
2022-09-11T03:49:02.475Z,5.05
2022-09-11T03:51:29.128Z,5.15
2022-09-11T03:53:55.733Z,5.82
2022-09-11T03:56:22.384Z,7.15
2022-09-11T03:58:49.051Z,5.03
2022-09-11T04:01:19.130Z,5.53
2022-09-11T04:03:45.934Z,4.45
2022-09-11T04:06:12.554Z,4.15
2022-09-11T04:08:41.306Z,5.13
2022-09-11T04:11:08.440Z,5.95
2022-09-11T04:13:36.912Z,3.83
2022-09-11T04:16:15.765Z,4.28
2022-09-11T04:18:44.320Z,4.90
2022-09-11T04:21:13.279Z,4.47
2022-09-11T04:23:41.078Z,4.88
2022-09-11T04:26:19.487Z,4.97
2022-09-11T04:28:46.194Z,5.65
2022-09-11T04:31:13.990Z,5.65
2022-09-11T04:33:41.057Z,5.38
2022-09-11T04:36:10.137Z,4.40
2022-09-11T04:38:38.304Z,5.57
2022-09-11T04:41:06.485Z,4.72
2022-09-11T04:43:37.402Z,7.15
2022-09-11T04:46:13.106Z,6.18
2022-09-11T04:48:51.746Z,5.22
2022-09-11T04:51:22.755Z,5.68
2022-09-11T04:53:52.942Z,5.47
2022-09-11T04:56:21.245Z,6.72
2022-09-11T04:58:55.159Z,4.55
2022-09-11T05:01:23.403Z,6.45
2022-09-11T05:03:49.965Z,5.13
2022-09-11T05:06:16.793Z,4.85
2022-09-11T05:08:45.113Z,5.60
2022-09-11T05:11:13.766Z,3.97
2022-09-11T05:13:41.356Z,6.72
2022-09-11T05:16:10.987Z,5.22
2022-09-11T05:18:40.122Z,5.85
2022-09-11T05:21:14.850Z,6.32
2022-09-11T05:23:42.818Z,6.38
2022-09-11T05:26:21.606Z,5.93
2022-09-11T05:28:53.151Z,6.53
2022-09-11T05:31:19.786Z,5.03
2022-09-11T05:33:46.800Z,5.70
2022-09-11T05:36:15.240Z,5.55
2022-09-11T05:38:42.934Z,5.60
2022-09-11T05:41:11.645Z,5.13
2022-09-11T05:43:39.267Z,3.83
2022-09-11T05:46:07.261Z,4.22
2022-09-11T05:48:36.825Z,3.70
2022-09-11T05:51:10.645Z,4.18
2022-09-11T05:53:38.055Z,4.45
2022-09-11T05:56:19.851Z,7.18
2022-09-11T06:01:16.491Z,3.70
2022-09-11T06:03:43.910Z,4.82
2022-09-11T06:06:12.602Z,5.22
2022-09-11T06:08:42.773Z,2.92
2022-09-11T06:11:09.510Z,4.00
2022-09-11T06:13:41.636Z,2.95
2022-09-11T06:16:17.403Z,5.47
2022-09-11T06:18:48.809Z,4.55
2022-09-11T06:21:20.063Z,4.40
2022-09-11T06:23:48.549Z,4.68
2022-09-11T06:26:18.341Z,3.25
2022-09-11T06:28:44.946Z,4.65
2022-09-11T06:31:18.199Z,3.67
2022-09-11T06:33:46.509Z,3.95
2022-09-11T06:36:18.822Z,4.85
2022-09-11T06:38:46.764Z,3.85
2022-09-11T06:41:15.415Z,4.88
2022-09-11T06:43:43.017Z,2.75
2022-09-11T06:46:14.871Z,3.65
2022-09-11T06:48:46.182Z,2.67
2022-09-11T06:51:15.651Z,3.80
2022-09-11T06:53:42.789Z,4.10
2022-09-11T06:56:17.715Z,3.20
2022-09-11T06:58:45.320Z,4.38
2022-09-11T07:01:17.371Z,3.45
2022-09-11T07:03:53.234Z,4.18
2022-09-11T07:06:25.364Z,4.80
2022-09-11T07:08:57.019Z,2.60
2022-09-11T07:13:50.125Z,3.55
2022-09-11T07:16:16.948Z,4.38
2022-09-11T07:18:45.356Z,3.83
2022-09-11T07:21:23.009Z,3.53
2022-09-11T07:23:54.761Z,2.75
2022-09-11T07:26:25.389Z,3.72
2022-09-11T07:28:52.748Z,4.38
2022-09-11T07:31:21.777Z,3.65
2022-09-11T07:33:50.077Z,2.92
2022-09-11T07:36:25.154Z,3.42
2022-09-11T07:38:52.306Z,2.38
2022-09-11T07:41:21.344Z,3.15
2022-09-11T07:43:52.591Z,2.08
2022-09-11T07:46:19.394Z,3.35
2022-09-11T07:48:45.943Z,3.35
2022-09-11T07:51:15.076Z,4.22
2022-09-11T07:53:43.115Z,3.03
2022-09-11T07:56:12.203Z,3.42
2022-09-11T07:58:40.897Z,2.25
2022-09-11T08:01:10.636Z,2.67
2022-09-11T08:03:37.844Z,2.50
2022-09-11T08:06:10.645Z,1.75
2022-09-11T08:08:38.411Z,3.42
2022-09-11T08:11:16.364Z,3.13
2022-09-11T08:13:47.149Z,2.38
2022-09-11T08:16:13.754Z,3.75
2022-09-11T08:18:40.320Z,3.63
2022-09-11T08:21:12.748Z,3.28
2022-09-11T08:23:41.938Z,2.60
2022-09-11T08:26:15.288Z,3.10
2022-09-11T08:28:45.660Z,2.25
2022-09-11T08:31:13.250Z,2.55
2022-09-11T08:33:40.645Z,2.78
2022-09-11T08:36:09.817Z,2.20
2022-09-11T08:38:37.518Z,2.00
2022-09-11T08:41:22.344Z,2.60
2022-09-11T08:43:53.074Z,2.85
2022-09-11T08:46:23.769Z,1.73
2022-09-11T08:48:59.625Z,1.83
2022-09-11T08:51:26.322Z,3.47
2022-09-11T08:53:57.044Z,2.17
2022-09-11T08:56:24.849Z,3.28
2022-09-11T08:59:09.618Z,1.83
2022-09-11T09:01:47.159Z,1.88
2022-09-11T09:04:35.433Z,1.92
2022-09-11T09:07:20.084Z,2.95
2022-09-11T09:09:46.603Z,2.92
2022-09-11T09:12:22.792Z,2.90
2022-09-11T09:15:14.594Z,2.15
2022-09-11T09:20:17.764Z,3.50
2022-09-11T09:22:56.789Z,3.20
2022-09-11T09:25:26.622Z,2.78
2022-09-11T09:28:06.681Z,2.00
2022-09-11T09:30:46.779Z,2.47
2022-09-11T09:33:27.604Z,2.35
2022-09-11T09:35:58.085Z,3.60
2022-09-11T09:38:30.078Z,3.13
2022-09-11T09:41:31.263Z,4.18
2022-09-11T09:44:05.029Z,2.88
2022-09-11T09:46:42.542Z,3.42
2022-09-11T09:49:17.453Z,3.63
2022-09-11T09:51:44.131Z,3.78
2022-09-11T09:54:16.886Z,2.92
2022-09-11T09:56:53.298Z,4.55
2022-09-11T09:59:33.199Z,5.35
2022-09-11T10:02:03.231Z,4.20
2022-09-11T10:04:31.353Z,4.22
2022-09-11T10:07:22.297Z,5.65
2022-09-11T10:09:55.441Z,3.67
2022-09-11T10:12:28.209Z,5.57
2022-09-11T10:14:59.353Z,5.05
2022-09-11T10:17:29.419Z,3.35
2022-09-11T10:20:23.221Z,4.03
2022-09-11T10:22:51.073Z,4.00
2022-09-11T10:25:26.570Z,4.43
2022-09-11T10:28:15.166Z,4.38
2022-09-11T10:30:46.457Z,4.00
2022-09-11T10:33:31.234Z,4.93
2022-09-11T10:36:00.470Z,3.97
2022-09-11T10:38:36.947Z,3.58
2022-09-11T10:41:08.513Z,3.95
2022-09-11T10:43:56.599Z,5.05
2022-09-11T10:46:39.631Z,5.57
2022-09-11T10:49:06.215Z,3.65
2022-09-11T10:51:38.494Z,4.50
2022-09-11T10:54:20.288Z,5.32
2022-09-11T10:57:16.877Z,3.05
2022-09-11T10:59:56.042Z,5.18
2022-09-11T11:02:41.021Z,4.85
2022-09-11T11:05:19.854Z,4.07
2022-09-11T11:08:08.493Z,3.92
2022-09-11T11:11:03.824Z,3.80
2022-09-11T11:14:07.960Z,4.50
2022-09-11T11:16:56.274Z,5.22
2022-09-11T11:19:30.485Z,4.88
2022-09-11T11:22:34.543Z,4.57
2022-09-11T11:25:30.140Z,4.63
2022-09-11T11:28:00.561Z,7.05
2022-09-11T11:30:38.387Z,3.85
2022-09-11T11:33:33.718Z,4.05
2022-09-11T11:36:10.630Z,5.38
2022-09-11T11:38:51.157Z,5.30
2022-09-11T11:41:23.830Z,4.20
2022-09-11T11:43:52.989Z,4.38
2022-09-11T11:46:40.750Z,5.57
2022-09-11T11:49:16.336Z,4.53
2022-09-11T11:52:13.170Z,4.15
2022-09-11T11:54:49.583Z,4.10
2022-09-11T11:57:24.179Z,4.93
2022-09-11T12:00:10.601Z,3.47
2022-09-11T12:02:53.283Z,4.97
2022-09-11T12:05:24.460Z,3.95
2022-09-11T12:07:51.820Z,4.43
2022-09-11T12:10:22.283Z,5.82
2022-09-11T12:12:55.783Z,4.68
2022-09-11T12:15:35.689Z,3.00
2022-09-11T12:18:07.027Z,4.88
2022-09-11T12:20:35.097Z,5.75
2022-09-11T12:23:02.255Z,4.28
2022-09-11T12:25:28.718Z,5.55
2022-09-11T12:28:20.338Z,4.55
2022-09-11T12:33:52.614Z,4.70
2022-09-11T12:36:24.563Z,4.20
2022-09-11T12:38:59.196Z,4.50
2022-09-11T12:41:30.361Z,4.63
2022-09-11T12:43:57.682Z,4.20
2022-09-11T12:46:25.296Z,5.45
2022-09-11T12:49:21.444Z,4.82
2022-09-11T12:51:55.252Z,4.18
2022-09-11T12:54:27.529Z,4.75
2022-09-11T12:57:07.781Z,6.25
2022-09-11T12:59:43.870Z,4.75
2022-09-11T13:02:36.314Z,5.20
2022-09-11T13:05:06.163Z,5.20
2022-09-11T13:07:53.381Z,5.50
2022-09-11T13:10:33.559Z,5.68
2022-09-11T13:13:02.644Z,4.82
2022-09-11T13:15:42.193Z,5.72
2022-09-11T13:18:37.924Z,3.72
2022-09-11T13:21:10.654Z,4.50
2022-09-11T13:23:37.730Z,5.53
2022-09-11T13:26:08.007Z,4.57
2022-09-11T13:28:46.960Z,5.45
2022-09-11T13:31:20.043Z,5.15
2022-09-11T13:33:50.438Z,4.78
2022-09-11T13:36:21.061Z,5.78
2022-09-11T13:38:56.079Z,6.38
2022-09-11T13:41:44.430Z,5.30
2022-09-11T13:44:27.949Z,4.57
2022-09-11T13:46:55.762Z,5.03
2022-09-11T13:49:33.270Z,6.85
2022-09-11T13:52:00.116Z,4.93
2022-09-11T13:54:30.979Z,5.78
2022-09-11T13:56:57.548Z,4.82
2022-09-11T13:59:38.416Z,5.65
2022-09-11T14:02:34.824Z,5.30
2022-09-11T14:05:07.751Z,5.20
2022-09-11T14:07:45.589Z,6.35
2022-09-11T14:10:21.416Z,5.97
2022-09-11T14:13:02.619Z,7.00
2022-09-11T14:15:37.999Z,6.95
2022-09-11T14:18:06.819Z,6.80
2022-09-11T14:20:35.964Z,6.53
2022-09-11T14:23:05.858Z,7.00
2022-09-11T14:25:34.121Z,6.13
2022-09-11T14:28:00.718Z,6.05
2022-09-11T14:30:37.522Z,7.65
2022-09-11T14:33:15.027Z,6.40
2022-09-11T14:35:43.934Z,5.82
2022-09-11T14:38:12.918Z,6.85
2022-09-11T14:40:48.618Z,5.40
2022-09-11T14:43:17.604Z,5.78
2022-09-11T14:45:45.764Z,6.65
2022-09-11T14:48:14.557Z,6.40
2022-09-11T14:50:41.718Z,6.53
2022-09-11T14:53:24.150Z,6.13
2022-09-11T14:55:51.377Z,5.90
2022-09-11T14:58:18.041Z,6.30
2022-09-11T15:00:45.286Z,6.53
2022-09-11T15:03:11.962Z,6.50
2022-09-11T15:05:38.960Z,7.55
2022-09-11T15:08:05.703Z,7.10
2022-09-11T15:10:33.200Z,6.13
2022-09-11T15:12:59.849Z,6.40
2022-09-11T15:15:27.765Z,7.72
2022-09-11T15:17:55.239Z,6.20
2022-09-11T15:20:24.428Z,6.28
2022-09-11T15:22:53.662Z,6.70
2022-09-11T15:25:20.268Z,6.88
2022-09-11T15:27:50.591Z,6.55
2022-09-11T15:30:18.529Z,5.93
2022-09-11T15:32:45.279Z,6.43
2022-09-11T15:35:12.763Z,7.15
2022-09-11T15:37:40.149Z,6.30
2022-09-11T15:40:07.186Z,6.28
2022-09-11T15:42:39.392Z,6.40
2022-09-11T15:45:08.215Z,5.80
2022-09-11T15:47:34.736Z,5.72
2022-09-11T15:50:01.920Z,6.18
2022-09-11T15:52:29.498Z,7.72
2022-09-11T15:54:56.773Z,5.97
2022-09-11T15:57:23.421Z,5.88
2022-09-11T15:59:51.857Z,6.22
2022-09-11T16:02:20.593Z,5.05
2022-09-11T16:04:51.597Z,5.20
2022-09-11T16:07:20.096Z,5.47
2022-09-11T16:09:46.702Z,5.82
2022-09-11T16:12:15.763Z,5.20
2022-09-11T16:14:42.611Z,6.70
2022-09-11T16:17:09.268Z,6.93
2022-09-11T16:19:36.591Z,7.95
2022-09-11T16:22:05.154Z,5.70
2022-09-11T16:24:37.491Z,6.32
2022-09-11T16:27:09.569Z,7.20
2022-09-11T16:30:25.885Z,6.68
2022-09-11T16:32:31.845Z,5.68
2022-09-11T16:34:59.645Z,5.70
2022-09-11T16:37:26.665Z,5.28
2022-09-11T16:39:53.469Z,6.50
2022-09-11T16:42:21.274Z,6.68
2022-09-11T16:44:49.164Z,5.60
2022-09-11T16:47:16.658Z,5.72
2022-09-11T16:50:06.108Z,7.30
2022-09-11T16:52:32.642Z,5.65
2022-09-11T16:54:59.569Z,4.82
2022-09-11T16:57:27.442Z,5.68
2022-09-11T16:59:54.092Z,5.85
2022-09-11T17:02:20.653Z,6.10
2022-09-11T17:04:47.311Z,7.60
2022-09-11T17:07:14.860Z,6.03
2022-09-11T17:09:43.522Z,6.50
2022-09-11T17:12:11.032Z,6.15
2022-09-11T17:14:38.089Z,7.25
2022-09-11T17:17:04.926Z,4.85
2022-09-11T17:19:31.535Z,7.50
2022-09-11T17:21:58.251Z,6.00
2022-09-11T17:24:24.762Z,6.10
2022-09-11T17:26:51.342Z,6.35
2022-09-11T17:29:19.521Z,7.95
2022-09-11T17:31:46.542Z,5.90
2022-09-11T17:34:14.186Z,5.32
2022-09-11T17:36:41.202Z,6.30
2022-09-11T17:39:07.752Z,5.65
2022-09-11T17:41:34.345Z,5.75
2022-09-11T17:44:00.913Z,7.35
2022-09-11T17:46:28.315Z,8.25
2022-09-11T17:48:55.440Z,8.93
2022-09-11T17:51:25.134Z,6.18
2022-09-11T17:53:57.223Z,7.57
2022-09-11T17:56:26.303Z,6.85
2022-09-11T17:58:55.306Z,9.07
2022-09-11T18:01:22.836Z,5.43
2022-09-11T18:03:51.434Z,6.13
2022-09-11T18:06:39.059Z,6.65
2022-09-11T18:09:19.664Z,6.15
2022-09-11T18:11:48.252Z,7.60
2022-09-11T18:14:15.966Z,6.82
2022-09-11T18:16:45.277Z,7.97
2022-09-11T18:19:12.398Z,6.85
2022-09-11T18:21:39.170Z,8.32
2022-09-11T18:24:09.766Z,6.85
2022-09-11T18:26:39.472Z,7.32
2022-09-11T18:29:10.011Z,7.95
2022-09-11T18:31:42.096Z,7.53
2022-09-11T18:34:15.195Z,8.30
2022-09-11T18:36:42.512Z,8.40
2022-09-11T18:39:11.057Z,7.78
2022-09-11T18:41:37.758Z,9.63
2022-09-11T18:44:08.481Z,7.25
2022-09-11T18:46:37.395Z,6.70
2022-09-11T18:49:04.957Z,6.90
2022-09-11T18:51:31.721Z,7.50
2022-09-11T18:53:59.525Z,6.43
2022-09-11T18:56:29.454Z,8.07
2022-09-11T18:58:56.434Z,7.38
2022-09-11T19:01:27.077Z,8.45
2022-09-11T19:03:53.901Z,8.30
2022-09-11T19:06:25.141Z,11.27
2022-09-11T19:08:53.841Z,7.80
2022-09-11T19:11:23.309Z,8.10
2022-09-11T19:13:52.869Z,7.03
2022-09-11T19:16:21.371Z,7.75
2022-09-11T19:18:48.742Z,8.68
2022-09-11T19:21:22.386Z,7.43
2022-09-11T19:23:51.750Z,7.15
2022-09-11T19:26:24.402Z,7.45
2022-09-11T19:28:52.352Z,7.80
2022-09-11T19:31:29.513Z,7.20
2022-09-11T19:33:57.818Z,7.72
2022-09-11T19:36:27.356Z,6.00
2022-09-11T19:39:01.549Z,6.38
2022-09-11T19:41:30.841Z,6.60
2022-09-11T19:44:02.242Z,7.15
2022-09-11T19:46:31.371Z,6.43
2022-09-11T19:49:00.633Z,7.00
2022-09-11T19:51:30.906Z,8.68
2022-09-11T19:54:02.180Z,8.43
2022-09-11T19:56:29.635Z,7.35
2022-09-11T19:58:56.334Z,8.68
2022-09-11T20:01:25.341Z,6.05
2022-09-11T20:03:53.641Z,7.57
2022-09-11T20:06:23.081Z,7.32
2022-09-11T20:08:59.177Z,6.35
2022-09-11T20:11:37.582Z,7.10
2022-09-11T20:14:05.382Z,8.63
2022-09-11T20:16:32.848Z,8.43
2022-09-11T20:19:06.246Z,7.68
2022-09-11T20:21:35.419Z,7.30
2022-09-11T20:24:02.581Z,7.82
2022-09-11T20:26:30.518Z,8.80
2022-09-11T20:29:00.638Z,9.07
2022-09-11T20:31:47.503Z,9.95
2022-09-11T20:34:16.738Z,9.38
2022-09-11T20:36:43.360Z,9.57
2022-09-11T20:39:13.536Z,7.72
2022-09-11T20:41:40.371Z,6.90
2022-09-11T20:44:07.004Z,9.23
2022-09-11T20:46:33.657Z,8.30
2022-09-11T20:49:00.869Z,6.75
2022-09-11T20:51:28.046Z,7.30
2022-09-11T20:53:56.015Z,8.43
2022-09-11T20:56:23.934Z,7.78
2022-09-11T20:58:51.669Z,8.43
2022-09-11T21:01:22.258Z,8.27
2022-09-11T21:03:54.549Z,8.33
2022-09-11T21:06:26.085Z,7.30
2022-09-11T21:09:01.331Z,7.53
2022-09-11T21:11:29.564Z,6.60
2022-09-11T21:13:56.135Z,5.97
2022-09-11T21:16:23.171Z,6.22
2022-09-11T21:18:52.408Z,6.28
2022-09-11T21:21:20.527Z,7.28
2022-09-11T21:23:47.589Z,6.38
2022-09-11T21:26:16.718Z,8.60
2022-09-11T21:28:43.870Z,5.75
2022-09-11T21:31:10.638Z,6.30
2022-09-11T21:33:37.907Z,7.65
2022-09-11T21:36:05.878Z,6.90
2022-09-11T21:38:32.946Z,5.63
2022-09-11T21:41:02.043Z,6.53
2022-09-11T21:43:29.145Z,7.28
2022-09-11T21:45:56.023Z,7.35
2022-09-11T21:48:23.008Z,7.72
2022-09-11T21:50:49.966Z,7.63
2022-09-11T21:53:16.618Z,6.45
2022-09-11T21:55:45.359Z,7.93
2022-09-11T21:58:15.926Z,7.85
2022-09-11T22:00:43.357Z,6.85
2022-09-11T22:03:12.131Z,6.07
2022-09-11T22:05:43.260Z,8.27
2022-09-11T22:08:11.692Z,7.03
2022-09-11T22:10:46.995Z,6.63
2022-09-11T22:13:13.668Z,6.90
2022-09-11T22:15:44.582Z,6.50
2022-09-11T22:18:11.294Z,7.47
2022-09-11T22:20:38.287Z,5.47
2022-09-11T22:23:05.558Z,7.05
2022-09-11T22:25:32.971Z,5.50
2022-09-11T22:27:59.713Z,6.15
2022-09-11T22:30:28.060Z,10.63
2022-09-11T22:32:54.996Z,7.50
2022-09-11T22:35:21.522Z,6.55
2022-09-11T22:37:48.358Z,6.30
2022-09-11T22:40:15.151Z,6.82
2022-09-11T22:42:41.815Z,5.88
2022-09-11T22:45:08.701Z,8.77
2022-09-11T22:47:35.380Z,7.30
2022-09-11T22:50:02.171Z,6.82
2022-09-11T22:52:29.300Z,6.53
2022-09-11T22:54:55.835Z,6.35
2022-09-11T22:57:22.341Z,7.72
2022-09-11T22:59:49.558Z,5.15
2022-09-11T23:02:16.235Z,5.45
2022-09-11T23:05:05.663Z,5.10
2022-09-11T23:07:32.272Z,6.90
2022-09-11T23:09:58.865Z,8.20
2022-09-11T23:12:25.529Z,6.07
2022-09-11T23:14:53.419Z,6.50
2022-09-11T23:17:21.042Z,6.60
2022-09-11T23:19:48.105Z,6.20
2022-09-11T23:22:14.727Z,5.97
2022-09-11T23:24:41.696Z,6.32
2022-09-11T23:27:08.333Z,5.57
2022-09-11T23:29:34.966Z,4.10
2022-09-11T23:32:01.594Z,8.32
2022-09-11T23:34:28.411Z,7.40
2022-09-11T23:36:54.921Z,7.38
2022-09-11T23:39:21.797Z,6.35
2022-09-11T23:41:48.317Z,7.45
2022-09-11T23:44:15.050Z,5.65
2022-09-11T23:46:42.239Z,5.40
2022-09-11T23:49:11.293Z,6.30
2022-09-11T23:51:38.002Z,6.50
2022-09-11T23:54:05.673Z,6.35
2022-09-11T23:56:32.207Z,8.07
2022-09-11T23:58:58.853Z,6.90
